Time;durP1;ratioP1;P1;durP2;ratioP2;P2;SDS_P1;SDS_P2;PMS_P1;PMS_P2;Temp;Humidity;BMP_temperature;BMP_pressure;BME280_temperature;BME280_humidity;BME280_pressure;Samples;Min_cycle;Max_cycle;Signal;HPM_P1;HPM_P2
2021/08/09 00:00:06;;;;;;;9.47;7.50;;;;;;;16.10;86.13;100642.25;1752354;80;21826;-74
2021/08/09 00:02:34;;;;;;;11.83;7.77;;;;;;;16.10;85.94;100642.25;1760460;79;21739;-73
2021/08/09 00:05:04;;;;;;;10.53;7.53;;;;;;;16.09;85.81;100635.27;1759677;79;21698;-73
2021/08/09 00:07:31;;;;;;;15.07;8.00;;;;;;;16.07;85.99;100630.70;1757428;79;21891;-74
2021/08/09 00:09:57;;;;;;;11.33;7.67;;;;;;;16.07;85.99;100630.70;1750463;79;22105;-73
2021/08/09 00:12:26;;;;;;;12.50;7.57;;;;;;;16.01;85.32;100630.52;1756346;79;21610;-73
2021/08/09 00:14:53;;;;;;;13.47;8.77;;;;;;;16.01;85.32;100630.52;1755265;79;21530;-74
2021/08/09 00:17:21;;;;;;;13.30;8.33;;;;;;;16.01;85.65;100625.13;1758391;80;22083;-73
2021/08/09 00:19:48;;;;;;;12.23;8.40;;;;;;;16.01;85.65;100625.13;1760575;81;21660;-73
2021/08/09 00:22:15;;;;;;;13.13;8.27;;;;;;;16.03;85.89;100618.92;1763080;79;21581;-73
2021/08/09 00:24:42;;;;;;;12.60;8.60;;;;;;;16.03;85.89;100618.92;1759932;79;22005;-73
2021/08/09 00:27:09;;;;;;;13.40;8.00;;;;;;;15.99;86.18;100612.52;1761011;79;21815;-73
2021/08/09 00:29:36;;;;;;;14.50;8.63;;;;;;;15.99;86.17;100616.56;1761392;81;21690;-73
2021/08/09 00:32:03;;;;;;;12.13;8.90;;;;;;;15.98;86.19;100621.67;1757168;80;21706;-73
2021/08/09 00:34:30;;;;;;;13.10;9.27;;;;;;;15.98;86.19;100621.67;1759379;80;21542;-73
2021/08/09 00:36:57;;;;;;;13.10;8.73;;;;;;;15.97;86.53;100621.98;1758900;79;21422;-73
2021/08/09 00:39:26;;;;;;;10.97;8.40;;;;;;;16.05;87.84;100614.02;1759848;79;21496;-73
2021/08/09 00:41:53;;;;;;;10.83;7.90;;;;;;;16.05;87.84;100614.02;1750332;80;22110;-73
2021/08/09 00:44:21;;;;;;;11.97;8.10;;;;;;;16.08;88.52;100613.44;1763342;79;21981;-73
2021/08/09 00:46:48;;;;;;;13.93;8.43;;;;;;;15.98;88.92;100613.59;1755409;80;21757;-74
2021/08/09 00:49:16;;;;;;;12.53;8.40;;;;;;;15.88;88.79;100612.39;1756594;79;21689;-73
2021/08/09 00:51:43;;;;;;;15.77;9.27;;;;;;;15.88;88.79;100612.39;1757964;79;21642;-75
2021/08/09 00:54:11;;;;;;;14.70;9.50;;;;;;;15.74;89.55;100606.13;1756326;79;21735;-76
2021/08/09 00:56:41;;;;;;;14.77;9.87;;;;;;;15.74;89.55;100606.13;1778557;78;21965;-75
2021/08/09 00:59:08;;;;;;;16.10;9.63;;;;;;;15.70;89.39;100609.41;1776483;79;21725;-75
2021/08/09 01:01:35;;;;;;;16.57;9.37;;;;;;;15.66;89.61;100612.42;1776608;78;22206;-76
2021/08/09 01:04:05;;;;;;;16.40;9.30;;;;;;;15.67;89.80;100609.98;1759245;79;21556;-75
2021/08/09 01:06:32;;;;;;;16.77;9.00;;;;;;;15.65;88.84;100614.02;1743647;81;21573;-76
2021/08/09 01:09:29;;;;;;;17.67;9.87;;;;;;;15.65;88.84;100614.02;1738569;80;22276;-76
2021/08/09 01:12:05;;;;;;;15.30;8.97;;;;;;;15.51;88.69;100605.85;1763616;79;21568;-74
2021/08/09 01:15:00;;;;;;;15.13;9.43;;;;;;;15.51;88.79;100601.81;1760246;79;21562;-75
2021/08/09 01:17:33;;;;;;;12.20;9.00;;;;;;;15.51;88.79;100601.81;1749794;81;21717;-75
2021/08/09 01:20:10;;;;;;;11.70;8.73;;;;;;;15.52;89.45;100603.41;1761484;79;21496;-75
2021/08/09 01:23:17;;;;;;;18.87;9.90;;;;;;;15.55;89.72;100601.48;1748099;80;21480;-74
2021/08/09 01:25:56;;;;;;;17.77;8.93;;;;;;;15.56;89.91;100600.94;1743275;80;21723;-70
2021/08/09 01:28:25;;;;;;;13.93;8.83;;;;;;;15.56;89.91;100600.94;1731942;82;21353;-71
2021/08/09 01:30:55;;;;;;;15.80;9.07;;;;;;;15.56;89.62;100599.04;1715186;81;21814;-71
2021/08/09 01:33:21;;;;;;;12.73;9.17;;;;;;;15.59;89.84;100591.73;1721933;82;21528;-71
2021/08/09 01:35:48;;;;;;;16.23;8.90;;;;;;;15.59;89.84;100591.73;1726679;82;22195;-70
2021/08/09 01:38:15;;;;;;;14.47;8.70;;;;;;;15.61;90.42;100601.68;1743747;80;21552;-71
2021/08/09 01:40:42;;;;;;;14.90;8.90;;;;;;;15.58;89.93;100598.22;1735290;82;21574;-70
2021/08/09 01:43:08;;;;;;;15.17;8.83;;;;;;;15.58;89.93;100598.22;1710964;81;21504;-70
2021/08/09 01:45:36;;;;;;;14.93;8.87;;;;;;;15.57;90.06;100595.83;1723331;81;21708;-71
2021/08/09 01:48:03;;;;;;;13.03;8.70;;;;;;;15.54;89.93;100598.55;1727159;81;21466;-71
2021/08/09 01:50:32;;;;;;;15.50;9.03;;;;;;;15.54;89.93;100598.55;1732047;81;21629;-70
2021/08/09 01:52:58;;;;;;;15.83;8.53;;;;;;;15.57;90.23;100614.67;1724728;81;21660;-72
2021/08/09 01:55:25;;;;;;;14.23;8.80;;;;;;;15.55;90.10;100612.25;1720352;81;22228;-70
2021/08/09 01:57:53;;;;;;;12.77;7.70;;;;;;;15.55;90.19;100607.42;1726429;81;21626;-71
2021/08/09 02:00:22;;;;;;;13.30;8.13;;;;;;;15.54;90.15;100615.25;1720710;82;21436;-71
2021/08/09 02:02:52;;;;;;;16.70;9.50;;;;;;;15.54;90.15;100615.25;1706856;82;22140;-72
2021/08/09 02:05:19;;;;;;;19.50;10.37;;;;;;;15.51;89.81;100610.44;1714149;80;21494;-73
2021/08/09 02:07:59;;;;;;;22.33;11.47;;;;;;;15.48;89.68;100611.26;1701465;82;21541;-72
2021/08/09 02:10:29;;;;;;;25.80;13.40;;;;;;;15.44;89.65;100610.79;1715586;82;21509;-71
2021/08/09 02:13:18;;;;;;;25.20;12.58;;;;;;;15.43;89.76;100610.52;1738360;81;22684;-70
2021/08/09 02:15:54;;;;;;;25.40;13.13;;;;;;;15.44;89.90;100614.28;1709215;82;21342;-71
2021/08/09 02:18:45;;;;;;;26.30;11.93;;;;;;;15.43;90.40;100610.52;1714595;81;21556;-72
2021/08/09 02:21:19;;;;;;;23.03;12.37;;;;;;;15.38;90.11;100609.24;1711176;82;21945;-70
2021/08/09 02:23:54;;;;;;;26.17;11.93;;;;;;;15.31;90.27;100612.83;1739239;80;21349;-70
2021/08/09 02:26:30;;;;;;;22.07;11.07;;;;;;;15.26;90.50;100612.33;1712358;82;22665;-71
2021/08/09 02:29:10;;;;;;;20.50;11.40;;;;;;;15.24;90.77;100613.97;1717542;82;21552;-70
2021/08/09 02:31:40;;;;;;;18.57;9.90;;;;;;;15.19;91.15;100612.67;1741733;80;21836;-70
2021/08/09 02:34:08;;;;;;;15.00;9.33;;;;;;;15.19;91.15;100612.67;1719223;81;22073;-71
2021/08/09 02:36:36;;;;;;;14.60;9.00;;;;;;;15.17;91.24;100612.17;1721964;82;21455;-72
2021/08/09 02:39:03;;;;;;;12.67;7.70;;;;;;;15.11;91.34;100614.66;1725247;81;22245;-72
2021/08/09 02:41:31;;;;;;;13.40;8.10;;;;;;;15.03;91.71;100612.58;1723247;81;21580;-72
2021/08/09 02:43:57;;;;;;;11.43;7.63;;;;;;;14.99;91.78;100613.69;1722256;81;21654;-71
2021/08/09 02:46:25;;;;;;;9.60;6.33;;;;;;;14.99;91.78;100613.69;1721855;82;21462;-72
2021/08/09 02:48:51;;;;;;;10.70;7.07;;;;;;;14.90;92.42;100633.42;1722665;82;22687;-72
2021/08/09 02:51:19;;;;;;;10.93;6.80;;;;;;;14.90;92.42;100633.42;1723916;81;21354;-72
2021/08/09 02:53:48;;;;;;;12.77;8.47;;;;;;;14.88;92.30;100625.65;1722363;82;21511;-71
2021/08/09 02:56:15;;;;;;;13.43;8.90;;;;;;;14.91;92.13;100624.29;1721899;81;21420;-72
2021/08/09 02:58:44;;;;;;;14.63;9.10;;;;;;;14.91;92.13;100624.29;1723861;82;21472;-72
2021/08/09 03:01:18;;;;;;;16.03;9.60;;;;;;;14.96;92.05;100625.02;1726033;81;22008;-72
2021/08/09 03:03:48;;;;;;;16.83;9.90;;;;;;;14.99;91.78;100631.72;1721175;82;21517;-73
2021/08/09 03:06:15;;;;;;;18.53;11.70;;;;;;;14.99;91.78;100631.72;1720440;81;21598;-72
2021/08/09 03:08:41;;;;;;;18.80;12.37;;;;;;;14.99;91.28;100623.11;1724391;82;21779;-70
2021/08/09 03:11:09;;;;;;;17.80;11.90;;;;;;;15.00;90.52;100621.21;1726603;82;21581;-71
2021/08/09 03:13:39;;;;;;;16.33;11.27;;;;;;;15.00;90.52;100621.21;1717716;81;21497;-71
2021/08/09 03:16:06;;;;;;;13.57;10.70;;;;;;;15.09;90.88;100631.62;1669158;82;21643;-71
2021/08/09 03:18:34;;;;;;;18.70;11.43;;;;;;;15.16;90.58;100631.28;1724561;82;21475;-70
2021/08/09 03:21:01;;;;;;;16.33;11.53;;;;;;;15.16;90.58;100631.28;1721179;81;21393;-72
2021/08/09 03:23:28;;;;;;;16.20;11.40;;;;;;;15.20;90.67;100627.75;1725005;82;21496;-71
2021/08/09 03:25:54;;;;;;;15.80;10.30;;;;;;;15.36;90.74;100632.94;1728072;82;21576;-71
2021/08/09 03:28:22;;;;;;;15.63;10.90;;;;;;;15.41;90.80;100639.63;1723560;81;22435;-71
2021/08/09 03:30:49;;;;;;;16.07;10.87;;;;;;;15.44;91.20;100633.67;1726482;81;21502;-71
2021/08/09 03:33:16;;;;;;;15.73;11.03;;;;;;;15.44;91.20;100633.67;1719019;81;21521;-71
2021/08/09 03:35:43;;;;;;;13.47;10.17;;;;;;;15.52;90.72;100637.61;1724038;81;21512;-71
2021/08/09 03:38:09;;;;;;;11.87;8.50;;;;;;;15.57;90.64;100635.66;1726305;82;21754;-71
2021/08/09 03:40:37;;;;;;;16.27;10.13;;;;;;;15.58;90.72;100643.19;1720870;81;21787;-73
2021/08/09 03:43:05;;;;;;;22.43;13.97;;;;;;;15.53;90.98;100641.38;1721109;81;21650;-72
2021/08/09 03:45:32;;;;;;;17.33;11.57;;;;;;;15.53;90.98;100641.38;1693665;81;22305;-71
2021/08/09 03:48:00;;;;;;;17.60;11.43;;;;;;;15.53;90.63;100648.10;1720219;81;21777;-72
2021/08/09 03:50:27;;;;;;;16.27;10.67;;;;;;;15.59;90.49;100656.34;1719862;81;21798;-72
2021/08/09 03:52:55;;;;;;;16.23;10.53;;;;;;;15.65;90.17;100648.47;1720704;81;21703;-70
2021/08/09 03:55:21;;;;;;;14.60;10.83;;;;;;;15.75;89.89;100642.73;1724362;82;21790;-71
2021/08/09 03:57:48;;;;;;;15.23;10.10;;;;;;;15.84;89.70;100647.19;1718729;81;21814;-71
2021/08/09 04:00:16;;;;;;;17.00;10.47;;;;;;;15.95;89.50;100640.56;1721549;81;21730;-72
2021/08/09 04:02:44;;;;;;;16.73;10.40;;;;;;;16.07;89.30;100634.75;1722965;81;21753;-71
2021/08/09 04:05:13;;;;;;;15.47;10.80;;;;;;;16.21;89.36;100635.36;1720918;81;21845;-72
2021/08/09 04:07:40;;;;;;;12.83;10.90;;;;;;;16.33;89.45;100630.33;1724356;82;21778;-71
2021/08/09 04:10:10;;;;;;;14.40;10.30;;;;;;;16.45;89.61;100624.47;1725184;81;21738;-72
2021/08/09 04:12:36;;;;;;;13.07;10.07;;;;;;;16.59;89.69;100615.89;1720228;81;21745;-72
2021/08/09 04:15:07;;;;;;;14.80;10.60;;;;;;;16.75;89.69;100628.58;1718971;82;21742;-71
2021/08/09 04:17:35;;;;;;;12.17;9.20;;;;;;;16.93;89.77;100629.63;1696506;82;21958;-70
2021/08/09 04:20:05;;;;;;;14.67;10.07;;;;;;;17.08;89.94;100636.91;1721118;82;21735;-71
2021/08/09 04:22:32;;;;;;;10.90;9.80;;;;;;;17.23;90.14;100634.45;1722727;82;21120;-71
2021/08/09 04:24:58;;;;;;;12.00;10.00;;;;;;;17.39;90.45;100612.56;1720651;82;21569;-71
2021/08/09 04:27:27;;;;;;;13.23;9.90;;;;;;;17.50;90.32;100630.94;1721433;81;21094;-71
2021/08/09 04:29:54;;;;;;;13.63;10.87;;;;;;;17.69;90.55;100635.43;1722097;82;21073;-72
2021/08/09 04:32:22;;;;;;;12.83;10.50;;;;;;;17.85;90.57;100637.29;1720514;82;21525;-72
2021/08/09 04:34:50;;;;;;;13.40;10.03;;;;;;;18.01;90.57;100642.05;1721095;81;21380;-72
2021/08/09 04:37:20;;;;;;;14.13;11.03;;;;;;;18.18;90.51;100641.95;1724361;82;21746;-73
2021/08/09 04:39:46;;;;;;;10.97;9.33;;;;;;;18.34;90.34;100639.70;1744422;80;21053;-72
2021/08/09 04:42:13;;;;;;;12.87;9.73;;;;;;;18.48;90.13;100645.28;1729286;82;21101;-72
2021/08/09 04:44:41;;;;;;;11.07;9.77;;;;;;;18.63;89.77;100636.56;1704479;82;21031;-71
2021/08/09 04:47:08;;;;;;;10.83;9.73;;;;;;;18.77;89.17;100643.27;1731506;81;21144;-71
2021/08/09 04:49:36;;;;;;;10.07;9.00;;;;;;;18.89;88.73;100652.42;1709559;81;21146;-72
2021/08/09 04:52:05;;;;;;;12.77;9.30;;;;;;;19.03;88.18;100645.55;1707421;82;21556;-71
2021/08/09 04:54:32;;;;;;;11.73;9.57;;;;;;;19.18;87.58;100649.22;1712991;81;21090;-70
2021/08/09 04:57:00;;;;;;;13.57;9.53;;;;;;;19.34;87.00;100650.92;1717634;82;21035;-73
2021/08/09 04:59:26;;;;;;;11.47;8.97;;;;;;;19.50;86.44;100654.57;1744468;80;21839;-72
2021/08/09 05:01:55;;;;;;;10.10;8.27;;;;;;;19.65;85.73;100654.17;1743713;80;21050;-72
2021/08/09 05:04:21;;;;;;;10.63;8.43;;;;;;;19.79;84.98;100654.03;1723708;82;21065;-71
2021/08/09 05:06:49;;;;;;;11.93;8.37;;;;;;;19.90;84.12;100646.63;1720140;82;21026;-72
2021/08/09 05:09:17;;;;;;;11.77;9.20;;;;;;;20.01;82.75;100651.20;1708715;82;21078;-72
2021/08/09 05:11:47;;;;;;;13.03;8.10;;;;;;;20.11;81.47;100656.88;1744262;81;21958;-72
2021/08/09 05:14:14;;;;;;;10.30;8.03;;;;;;;20.15;79.57;100655.11;1742037;81;21078;-72
2021/08/09 05:16:42;;;;;;;10.67;7.30;;;;;;;20.24;78.95;100657.83;1711355;82;21474;-72
2021/08/09 05:19:11;;;;;;;10.00;7.03;;;;;;;20.36;78.89;100656.61;1723621;82;21110;-72
2021/08/09 05:21:40;;;;;;;10.48;7.62;;;;;;;20.49;77.35;100662.42;1721442;81;21094;-74
2021/08/09 05:24:08;;;;;;;10.43;7.73;;;;;;;20.58;75.75;100646.97;1718693;81;21141;-72
2021/08/09 05:26:35;;;;;;;9.33;7.57;;;;;;;20.67;75.17;100655.10;1721097;81;21179;-72
2021/08/09 05:29:02;;;;;;;9.43;7.63;;;;;;;20.77;75.07;100658.83;1721452;81;21185;-72
2021/08/09 05:31:30;;;;;;;11.03;7.27;;;;;;;20.93;74.97;100661.03;1721646;82;21161;-72
2021/08/09 05:33:57;;;;;;;9.67;6.67;;;;;;;21.05;74.33;100662.49;1724402;81;21075;-71
2021/08/09 05:36:25;;;;;;;11.20;7.00;;;;;;;21.19;73.07;100658.20;1717557;82;21486;-72
2021/08/09 05:38:51;;;;;;;7.90;7.10;;;;;;;21.30;72.10;100656.73;1721280;81;20945;-71
2021/08/09 05:41:18;;;;;;;8.37;6.87;;;;;;;21.38;71.74;100653.20;1722592;81;21015;-72
2021/08/09 05:43:45;;;;;;;7.70;6.53;;;;;;;21.51;70.95;100658.17;1727288;82;21562;-73
2021/08/09 05:46:13;;;;;;;9.17;6.40;;;;;;;21.61;70.13;100657.00;1719577;82;20923;-70
2021/08/09 05:48:43;;;;;;;7.30;5.33;;;;;;;21.71;69.64;100652.53;1722493;82;21178;-71
2021/08/09 05:51:09;;;;;;;7.07;5.80;;;;;;;21.82;68.55;100651.04;1723936;82;20951;-71
2021/08/09 05:53:37;;;;;;;8.60;6.10;;;;;;;21.94;67.75;100642.14;1720308;82;21098;-71
2021/08/09 05:56:06;;;;;;;7.77;5.50;;;;;;;22.07;67.59;100645.16;1725760;81;21097;-71
2021/08/09 05:58:37;;;;;;;11.97;6.10;;;;;;;22.20;66.85;100644.13;1722136;82;21038;-70
2021/08/09 06:01:05;;;;;;;9.17;5.80;;;;;;;22.33;65.94;100643.61;1716615;81;21149;-71
2021/08/09 06:03:32;;;;;;;6.60;5.70;;;;;;;22.44;65.26;100647.53;1725123;81;21015;-71
2021/08/09 06:06:01;;;;;;;8.33;5.50;;;;;;;22.57;64.83;100646.98;1721265;81;21462;-76
2021/08/09 06:08:29;;;;;;;9.63;5.70;;;;;;;22.70;64.82;100644.55;1723307;81;21060;-71
2021/08/09 06:10:59;;;;;;;6.93;5.03;;;;;;;22.84;64.20;100657.06;1720900;82;21023;-71
2021/08/09 06:13:26;;;;;;;6.87;5.20;;;;;;;22.96;62.74;100665.84;1722003;81;21216;-71
2021/08/09 06:15:55;;;;;;;6.77;5.20;;;;;;;22.99;62.21;100667.31;1723586;82;21115;-71
2021/08/09 06:18:23;;;;;;;7.90;5.17;;;;;;;23.05;62.19;100661.09;1720869;81;21003;-71
2021/08/09 06:20:50;;;;;;;7.63;4.80;;;;;;;23.17;61.84;100665.20;1717967;81;21106;-71
2021/08/09 06:23:17;;;;;;;6.37;4.83;;;;;;;23.29;61.30;100664.39;1721091;82;21126;-71
2021/08/09 06:25:45;;;;;;;6.67;4.60;;;;;;;23.40;60.62;100661.46;1724136;81;21720;-71
2021/08/09 06:28:13;;;;;;;5.97;4.63;;;;;;;23.51;60.40;100653.61;1718518;81;21094;-72
2021/08/09 06:30:40;;;;;;;6.00;4.20;;;;;;;23.62;60.35;100662.33;1727062;81;21090;-71
2021/08/09 06:33:08;;;;;;;6.50;4.60;;;;;;;23.75;59.44;100661.78;1721892;81;21145;-73
2021/08/09 06:35:35;;;;;;;7.33;4.37;;;;;;;23.90;58.81;100669.05;1723702;82;21022;-71
2021/08/09 06:38:06;;;;;;;5.40;4.40;;;;;;;24.02;58.32;100662.18;1719762;81;21136;-71
2021/08/09 06:40:34;;;;;;;6.25;4.28;;;;;;;24.13;57.84;100664.67;1693109;82;21042;-70
2021/08/09 06:43:03;;;;;;;7.57;4.60;;;;;;;24.26;57.72;100669.52;1717346;81;21310;-71
2021/08/09 06:45:31;;;;;;;8.50;4.30;;;;;;;24.37;57.06;100663.78;1721932;81;21117;-70
2021/08/09 06:47:58;;;;;;;7.93;4.63;;;;;;;24.49;56.92;100657.52;1720559;82;21580;-71
2021/08/09 06:50:25;;;;;;;7.23;4.90;;;;;;;24.57;56.07;100657.34;1720882;81;21100;-72
2021/08/09 06:52:52;;;;;;;7.60;4.57;;;;;;;24.68;56.05;100662.28;1723553;82;21045;-71
2021/08/09 06:55:19;;;;;;;5.20;3.90;;;;;;;24.74;54.77;100664.98;1725370;82;22329;-71
2021/08/09 06:57:47;;;;;;;5.90;3.90;;;;;;;24.77;54.86;100664.29;1724541;81;21600;-70
2021/08/09 07:00:15;;;;;;;5.03;4.07;;;;;;;24.84;54.66;100663.10;1717688;81;21129;-70
2021/08/09 07:02:41;;;;;;;5.70;4.00;;;;;;;24.91;54.24;100662.50;1720624;81;21161;-71
2021/08/09 07:05:09;;;;;;;6.33;4.00;;;;;;;25.00;53.92;100657.66;1721629;82;21059;-71
2021/08/09 07:07:38;;;;;;;5.53;3.83;;;;;;;25.10;53.62;100653.03;1724009;82;21170;-71
2021/08/09 07:10:07;;;;;;;5.30;4.33;;;;;;;25.21;53.23;100651.98;1719730;82;21601;-69
2021/08/09 07:12:35;;;;;;;4.20;3.55;;;;;;;25.28;51.86;100652.72;1721692;82;21107;-73
2021/08/09 07:15:04;;;;;;;5.63;3.80;;;;;;;25.28;51.83;100648.05;1726530;82;21114;-72
2021/08/09 07:17:40;;;;;;;4.60;3.60;;;;;;;25.34;51.66;100646.63;1723143;81;21117;-71
2021/08/09 07:20:13;;;;;;;6.37;3.60;;;;;;;25.37;51.33;100644.55;1695785;82;21534;-71
2021/08/09 07:22:44;;;;;;;6.45;3.30;;;;;;;25.45;50.66;100644.14;1690513;82;21453;-74
2021/08/09 07:25:12;;;;;;;5.43;3.37;;;;;;;25.50;50.14;100640.56;1721824;82;21105;-71
2021/08/09 07:27:39;;;;;;;4.03;2.77;;;;;;;25.63;49.89;100640.42;1712016;81;21669;-70
2021/08/09 07:30:08;;;;;;;3.87;2.60;;;;;;;25.73;48.80;100643.41;1723308;81;21067;-71
2021/08/09 07:32:35;;;;;;;3.77;2.40;;;;;;;25.86;48.40;100644.66;1721815;82;21608;-72
2021/08/09 07:35:04;;;;;;;4.57;2.70;;;;;;;25.97;47.01;100641.59;1693463;82;21107;-73
2021/08/09 07:37:30;;;;;;;4.10;2.67;;;;;;;26.06;46.95;100652.31;1717865;81;21114;-73
2021/08/09 07:39:59;;;;;;;3.80;2.83;;;;;;;26.16;47.49;100651.77;1715453;80;21074;-74
2021/08/09 07:42:25;;;;;;;4.60;2.77;;;;;;;26.27;47.53;100649.23;1727589;82;21071;-73
2021/08/09 07:44:53;;;;;;;4.00;2.80;;;;;;;26.37;46.79;100650.80;1720968;82;21043;-72
2021/08/09 07:47:21;;;;;;;3.40;2.20;;;;;;;26.47;46.83;100640.42;1718613;82;21152;-73
2021/08/09 07:49:47;;;;;;;3.80;2.07;;;;;;;26.57;45.52;100641.22;1722675;82;21085;-72
2021/08/09 07:52:14;;;;;;;5.47;2.10;;;;;;;26.66;44.68;100637.67;1720010;82;21512;-73
2021/08/09 07:54:41;;;;;;;4.63;2.63;;;;;;;26.71;42.32;100635.99;1720934;82;21137;-74
2021/08/09 07:57:08;;;;;;;3.90;2.23;;;;;;;26.74;43.22;100638.00;1721503;81;21511;-70
2021/08/09 07:59:36;;;;;;;3.53;2.27;;;;;;;26.78;43.48;100632.59;1724722;82;21590;-72
2021/08/09 08:02:04;;;;;;;3.37;2.37;;;;;;;26.87;42.83;100638.03;1717801;82;21035;-70
2021/08/09 08:04:31;;;;;;;3.40;2.10;;;;;;;26.95;42.16;100638.97;1724013;81;21478;-71
2021/08/09 08:06:59;;;;;;;14.43;3.60;;;;;;;27.02;42.56;100637.71;1722562;82;21079;-72
2021/08/09 08:09:26;;;;;;;6.10;2.50;;;;;;;27.13;42.38;100633.80;1724623;81;21098;-70
2021/08/09 08:11:52;;;;;;;5.87;2.63;;;;;;;27.21;42.40;100629.98;1718280;83;21654;-71
2021/08/09 08:14:19;;;;;;;5.23;2.40;;;;;;;27.35;42.24;100628.86;1721955;82;21034;-71
2021/08/09 08:16:48;;;;;;;11.10;2.80;;;;;;;27.41;41.53;100629.89;1719689;82;21047;-71
2021/08/09 08:19:16;;;;;;;10.47;3.43;;;;;;;27.45;41.60;100636.25;1725265;82;21043;-70
2021/08/09 08:21:44;;;;;;;3.37;2.17;;;;;;;27.52;40.74;100628.11;1726989;82;21574;-72
2021/08/09 08:24:11;;;;;;;6.90;2.40;;;;;;;27.55;40.46;100630.12;1726741;81;21110;-72
2021/08/09 08:26:38;;;;;;;4.50;2.40;;;;;;;27.54;40.90;100635.38;1709786;81;21087;-74
2021/08/09 08:29:05;;;;;;;4.03;2.27;;;;;;;27.59;40.81;100640.55;1711621;82;21173;-73
2021/08/09 08:31:32;;;;;;;3.40;2.27;;;;;;;27.66;39.83;100643.39;1722907;81;20967;-73
2021/08/09 08:33:59;;;;;;;4.17;2.30;;;;;;;27.73;39.96;100642.70;1724716;81;21168;-73
2021/08/09 08:36:26;;;;;;;4.80;2.80;;;;;;;27.83;40.57;100638.75;1723437;82;21050;-74
2021/08/09 08:38:56;;;;;;;5.27;2.50;;;;;;;27.90;39.19;100632.55;1717879;82;21051;-74
2021/08/09 08:41:22;;;;;;;4.53;2.57;;;;;;;27.86;39.56;100644.08;1728031;82;21547;-72
2021/08/09 08:43:50;;;;;;;4.03;2.20;;;;;;;27.92;40.17;100639.84;1720885;82;21019;-73
2021/08/09 08:46:18;;;;;;;4.87;2.70;;;;;;;27.98;39.85;100638.95;1720918;81;21090;-73
2021/08/09 08:48:46;;;;;;;7.10;2.70;;;;;;;28.08;40.15;100639.66;1719500;83;21027;-73
2021/08/09 08:51:13;;;;;;;4.47;2.70;;;;;;;28.17;40.05;100642.12;1720564;81;21412;-72
2021/08/09 08:53:41;;;;;;;5.07;2.80;;;;;;;28.23;39.87;100646.91;1710314;82;21176;-73
2021/08/09 08:56:09;;;;;;;4.10;2.97;;;;;;;28.26;39.45;100649.47;1725504;81;21069;-73
2021/08/09 08:58:36;;;;;;;4.17;2.53;;;;;;;28.28;39.35;100649.89;1727137;81;21832;-75
2021/08/09 09:01:03;;;;;;;4.33;2.40;;;;;;;28.30;39.45;100651.69;1727991;81;21131;-76
2021/08/09 09:03:31;;;;;;;6.10;2.80;;;;;;;28.34;39.13;100644.86;1724935;82;21053;-75
2021/08/09 09:06:04;;;;;;;5.40;2.70;;;;;;;28.38;38.97;100644.31;1721676;81;21841;-73
2021/08/09 09:08:47;;;;;;;7.83;3.13;;;;;;;28.38;38.97;100637.44;1724614;81;21049;-74
2021/08/09 09:11:28;;;;;;;4.30;2.70;;;;;;;28.42;39.09;100649.28;1697852;82;21189;-73
2021/08/09 09:14:01;;;;;;;7.10;2.80;;;;;;;28.48;37.85;100649.94;1705900;82;21090;-73
2021/08/09 09:16:44;;;;;;;4.27;2.80;;;;;;;28.56;38.43;100641.18;1725906;81;21086;-73
2021/08/09 09:19:35;;;;;;;7.57;3.70;;;;;;;28.61;37.57;100645.56;1726446;81;21167;-76
2021/08/09 09:22:06;;;;;;;6.03;3.40;;;;;;;28.65;38.80;100653.25;1727139;81;21071;-75
2021/08/09 09:24:35;;;;;;;6.10;3.70;;;;;;;28.60;38.99;100646.73;1722059;81;21123;-73
2021/08/09 09:27:08;;;;;;;8.57;3.93;;;;;;;28.61;39.23;100651.84;1720787;81;21048;-73
2021/08/09 09:29:37;;;;;;;7.80;3.63;;;;;;;28.63;39.40;100649.52;1719220;82;21063;-74
2021/08/09 09:32:21;;;;;;;7.03;3.70;;;;;;;28.63;39.05;100653.64;1725235;81;21461;-74
2021/08/09 09:34:57;;;;;;;6.83;3.80;;;;;;;28.64;39.53;100654.42;1720864;81;21082;-74
2021/08/09 09:37:37;;;;;;;5.73;3.50;;;;;;;28.65;39.81;100658.16;1724749;81;21074;-75
2021/08/09 09:40:09;;;;;;;8.90;3.90;;;;;;;28.66;39.84;100662.51;1724250;81;21083;-74
2021/08/09 09:42:40;;;;;;;11.67;3.93;;;;;;;28.64;39.13;100665.42;1727652;81;21074;-73
2021/08/09 09:45:27;;;;;;;10.00;4.37;;;;;;;28.58;39.54;100661.42;1721791;81;21165;-73
2021/08/09 09:48:07;;;;;;;6.20;3.80;;;;;;;28.60;39.54;100661.85;1726227;81;21054;-72
2021/08/09 09:50:37;;;;;;;9.77;3.97;;;;;;;28.65;39.20;100661.50;1725746;81;21171;-72
2021/08/09 09:53:21;;;;;;;5.85;3.80;;;;;;;28.68;38.65;100664.28;1727641;81;28183;-74
2021/08/09 09:55:53;;;;;;;7.73;3.20;;;;;;;28.68;39.29;100662.91;1724720;81;21094;-72
2021/08/09 09:58:19;;;;;;;5.70;3.40;;;;;;;28.67;38.85;100653.67;1725056;81;21134;-74
2021/08/09 10:00:46;;;;;;;6.60;3.57;;;;;;;28.69;38.50;100651.32;1726569;81;21050;-75
2021/08/09 10:03:14;;;;;;;6.83;3.50;;;;;;;28.72;38.08;100640.36;1725463;81;21185;-73
2021/08/09 10:05:42;;;;;;;9.87;3.70;;;;;;;28.77;38.02;100619.21;1723424;81;21051;-73
2021/08/09 10:08:14;;;;;;;5.57;3.40;;;;;;;28.79;37.68;100619.60;1724694;82;21106;-76
2021/08/09 10:10:49;;;;;;;6.33;3.17;;;;;;;28.83;37.83;100619.86;1717802;82;21110;-73
2021/08/09 10:13:19;;;;;;;5.43;3.50;;;;;;;28.90;37.60;100615.00;1716057;82;21144;-70
2021/08/09 10:16:03;;;;;;;6.30;3.50;;;;;;;28.95;37.60;100620.92;1738356;81;21094;-74
2021/08/09 10:18:34;;;;;;;7.60;3.70;;;;;;;29.00;37.86;100632.20;1723041;81;21085;-70
2021/08/09 10:21:03;;;;;;;6.20;3.50;;;;;;;29.06;37.77;100639.52;1749401;80;20991;-73
2021/08/09 10:23:48;;;;;;;4.63;3.50;;;;;;;29.10;37.36;100641.70;1743255;80;21508;-72
2021/08/09 10:26:34;;;;;;;5.60;3.47;;;;;;;29.15;37.34;100630.34;1741719;81;21054;-71
2021/08/09 10:29:11;;;;;;;6.27;3.10;;;;;;;29.22;37.03;100635.91;1737204;81;21175;-71
2021/08/09 10:31:42;;;;;;;4.67;2.83;;;;;;;29.28;36.74;100629.45;1739085;80;21498;-71
2021/08/09 10:34:10;;;;;;;4.10;2.73;;;;;;;29.30;35.53;100617.48;1712409;83;21053;-71
2021/08/09 10:37:07;;;;;;;4.57;2.90;;;;;;;29.32;34.58;100639.32;1717575;81;21105;-72
2021/08/09 10:40:00;;;;;;;3.93;2.87;;;;;;;29.34;35.15;100632.83;1714572;82;21066;-70
2021/08/09 10:42:40;;;;;;;4.63;2.93;;;;;;;29.39;34.41;100625.61;1724461;82;21060;-73
2021/08/09 10:45:14;;;;;;;3.30;2.20;;;;;;;29.43;33.27;100617.38;1722634;82;21101;-73
2021/08/09 10:47:50;;;;;;;4.00;2.87;;;;;;;29.51;34.23;100611.31;1721277;81;22436;-74
2021/08/09 10:50:44;;;;;;;5.00;3.20;;;;;;;29.62;34.84;100611.61;1747408;80;21122;-72
2021/08/09 10:53:03;;;;;;;5.73;3.00;;;;;;;29.71;34.56;100609.08;1742763;80;21050;-71
2021/08/09 10:55:36;;;;;;;4.23;3.00;;;;;;;29.74;33.65;100610.47;1744701;80;21215;-72
2021/08/09 10:58:04;;;;;;;3.73;2.67;;;;;;;29.75;32.62;100606.56;1714668;81;21098;-71
2021/08/09 11:00:46;;;;;;;5.00;2.80;;;;;;;29.74;33.11;100602.81;1718951;83;21042;-71
2021/08/09 11:03:20;;;;;;;5.97;3.07;;;;;;;29.75;32.59;100592.80;1707228;81;21149;-71
2021/08/09 11:05:42;;;;;;;5.30;3.27;;;;;;;29.78;34.05;100596.16;1724600;81;21000;-71
2021/08/09 11:08:20;;;;;;;4.17;3.07;;;;;;;29.88;34.17;100592.66;1724393;81;21028;-73
2021/08/09 11:10:58;;;;;;;7.37;3.20;;;;;;;29.96;33.18;100587.17;1721369;82;21119;-73
2021/08/09 11:13:32;;;;;;;7.60;3.10;;;;;;;29.95;33.51;100583.63;1727115;81;21193;-70
2021/08/09 11:16:04;;;;;;;5.47;3.00;;;;;;;29.93;32.87;100575.55;1707084;81;21288;-72
2021/08/09 11:18:34;;;;;;;4.70;3.03;;;;;;;29.91;32.60;100572.61;1721181;82;21046;-72
2021/08/09 11:21:10;;;;;;;4.90;3.20;;;;;;;29.90;31.93;100574.36;1751377;80;21138;-73
2021/08/09 11:23:45;;;;;;;4.53;2.90;;;;;;;29.89;32.07;100563.94;1729414;81;20991;-71
2021/08/09 11:26:24;;;;;;;3.90;2.97;;;;;;;29.91;32.68;100567.66;1727705;82;21553;-71
2021/08/09 11:29:07;;;;;;;4.50;2.97;;;;;;;29.95;33.39;100556.69;1720447;81;21134;-72
2021/08/09 11:31:48;;;;;;;4.23;2.83;;;;;;;30.03;32.51;100566.53;1714578;81;21095;-70